Terminal Aerodrome Forecast
Issued by NWS Hastings, NE

Home | Current Version | Previous Version | Text Only | Print | Product List | Glossary On
Versions: 1 2 3 4 5 6 7 8 9 10 11 12 13 14 15 16 17
000
FTUS43 KGID 310648 AAA
TAFGRI
TAF AMD
KGRI 310648Z 3107/0106 36014KT P6SM BKN020
     FM311000 01010KT P6SM SCT025
     FM311500 03010KT P6SM SKC
     FM312300 13008KT P6SM FEW250=

USA.gov is the U.S. government's official web portal to all federal, state and local government web resources and services.